sensor_id;sensor_type;location;lat;lon;timestamp;P1;durP1;ratioP1;P2;durP2;ratioP2
54167;SDS011;68429;50.958;3.592;2023-12-29T00:01:55;18.48;;;3.33;;
54167;SDS011;68429;50.958;3.592;2023-12-29T00:04:21;18.00;;;2.50;;
54167;SDS011;68429;50.958;3.592;2023-12-29T00:06:47;16.67;;;4.25;;
54167;SDS011;68429;50.958;3.592;2023-12-29T00:09:14;9.70;;;2.13;;
54167;SDS011;68429;50.958;3.592;2023-12-29T00:11:40;20.60;;;2.70;;
54167;SDS011;68429;50.958;3.592;2023-12-29T00:14:05;18.85;;;2.70;;
54167;SDS011;68429;50.958;3.592;2023-12-29T00:16:31;22.52;;;3.47;;
54167;SDS011;68429;50.958;3.592;2023-12-29T00:18:56;10.32;;;2.22;;
54167;SDS011;68429;50.958;3.592;2023-12-29T00:21:22;11.15;;;2.03;;
54167;SDS011;68429;50.958;3.592;2023-12-29T00:23:48;20.73;;;3.00;;
54167;SDS011;68429;50.958;3.592;2023-12-29T00:26:17;12.23;;;2.50;;
54167;SDS011;68429;50.958;3.592;2023-12-29T00:28:45;13.57;;;2.65;;
54167;SDS011;68429;50.958;3.592;2023-12-29T00:31:14;18.17;;;2.75;;
54167;SDS011;68429;50.958;3.592;2023-12-29T00:33:41;12.73;;;2.22;;
54167;SDS011;68429;50.958;3.592;2023-12-29T00:36:07;8.32;;;1.92;;
54167;SDS011;68429;50.958;3.592;2023-12-29T00:38:33;10.27;;;1.88;;
54167;SDS011;68429;50.958;3.592;2023-12-29T00:40:59;15.98;;;2.50;;
54167;SDS011;68429;50.958;3.592;2023-12-29T00:43:24;9.93;;;2.20;;
54167;SDS011;68429;50.958;3.592;2023-12-29T00:45:50;10.45;;;2.03;;
54167;SDS011;68429;50.958;3.592;2023-12-29T00:48:16;14.55;;;2.15;;
54167;SDS011;68429;50.958;3.592;2023-12-29T00:50:41;17.38;;;3.70;;
54167;SDS011;68429;50.958;3.592;2023-12-29T00:53:07;15.30;;;2.00;;
54167;SDS011;68429;50.958;3.592;2023-12-29T00:55:33;10.57;;;1.98;;
54167;SDS011;68429;50.958;3.592;2023-12-29T00:57:58;10.90;;;2.15;;
54167;SDS011;68429;50.958;3.592;2023-12-29T01:00:24;6.18;;;1.75;;
54167;SDS011;68429;50.958;3.592;2023-12-29T01:02:50;12.20;;;2.53;;
54167;SDS011;68429;50.958;3.592;2023-12-29T01:05:16;7.72;;;1.98;;
54167;SDS011;68429;50.958;3.592;2023-12-29T01:07:42;9.38;;;1.75;;
54167;SDS011;68429;50.958;3.592;2023-12-29T01:10:08;21.50;;;2.47;;
54167;SDS011;68429;50.958;3.592;2023-12-29T01:12:34;14.98;;;2.55;;
54167;SDS011;68429;50.958;3.592;2023-12-29T01:14:59;17.20;;;3.03;;
54167;SDS011;68429;50.958;3.592;2023-12-29T01:17:25;17.60;;;3.05;;
54167;SDS011;68429;50.958;3.592;2023-12-29T01:19:53;21.10;;;3.05;;
54167;SDS011;68429;50.958;3.592;2023-12-29T01:22:19;14.55;;;2.55;;
54167;SDS011;68429;50.958;3.592;2023-12-29T01:24:45;20.52;;;2.67;;
54167;SDS011;68429;50.958;3.592;2023-12-29T01:27:10;11.52;;;2.38;;
54167;SDS011;68429;50.958;3.592;2023-12-29T01:29:36;11.35;;;2.22;;
54167;SDS011;68429;50.958;3.592;2023-12-29T01:32:02;13.55;;;1.85;;
54167;SDS011;68429;50.958;3.592;2023-12-29T01:34:28;15.77;;;2.17;;
54167;SDS011;68429;50.958;3.592;2023-12-29T01:37:02;8.60;;;2.03;;
54167;SDS011;68429;50.958;3.592;2023-12-29T01:39:29;21.63;;;2.70;;
54167;SDS011;68429;50.958;3.592;2023-12-29T01:41:55;15.40;;;2.22;;
54167;SDS011;68429;50.958;3.592;2023-12-29T01:44:21;15.45;;;2.55;;
54167;SDS011;68429;50.958;3.592;2023-12-29T01:46:51;18.77;;;3.38;;
54167;SDS011;68429;50.958;3.592;2023-12-29T01:49:19;10.35;;;2.08;;
54167;SDS011;68429;50.958;3.592;2023-12-29T01:51:51;9.98;;;2.22;;
54167;SDS011;68429;50.958;3.592;2023-12-29T01:54:19;17.15;;;2.20;;
54167;SDS011;68429;50.958;3.592;2023-12-29T01:56:47;13.82;;;2.53;;
54167;SDS011;68429;50.958;3.592;2023-12-29T01:59:15;15.52;;;3.25;;
54167;SDS011;68429;50.958;3.592;2023-12-29T02:01:41;14.30;;;2.72;;
54167;SDS011;68429;50.958;3.592;2023-12-29T02:04:08;15.52;;;2.80;;
54167;SDS011;68429;50.958;3.592;2023-12-29T02:06:37;15.48;;;3.53;;
54167;SDS011;68429;50.958;3.592;2023-12-29T02:09:03;12.35;;;2.50;;
54167;SDS011;68429;50.958;3.592;2023-12-29T02:11:29;15.30;;;2.67;;
54167;SDS011;68429;50.958;3.592;2023-12-29T02:13:55;12.40;;;2.60;;
54167;SDS011;68429;50.958;3.592;2023-12-29T02:16:23;13.20;;;2.25;;
54167;SDS011;68429;50.958;3.592;2023-12-29T02:19:25;13.63;;;2.63;;
54167;SDS011;68429;50.958;3.592;2023-12-29T02:22:05;8.55;;;1.48;;
54167;SDS011;68429;50.958;3.592;2023-12-29T02:24:33;15.88;;;2.88;;
54167;SDS011;68429;50.958;3.592;2023-12-29T02:27:21;17.63;;;2.78;;
54167;SDS011;68429;50.958;3.592;2023-12-29T02:29:57;12.07;;;2.25;;
54167;SDS011;68429;50.958;3.592;2023-12-29T02:32:26;14.63;;;3.08;;
54167;SDS011;68429;50.958;3.592;2023-12-29T02:34:54;10.27;;;2.63;;
54167;SDS011;68429;50.958;3.592;2023-12-29T02:37:21;19.45;;;2.78;;
54167;SDS011;68429;50.958;3.592;2023-12-29T02:39:47;13.57;;;2.28;;
54167;SDS011;68429;50.958;3.592;2023-12-29T02:42:13;18.27;;;2.83;;
54167;SDS011;68429;50.958;3.592;2023-12-29T02:44:39;16.23;;;2.42;;
54167;SDS011;68429;50.958;3.592;2023-12-29T02:47:04;14.73;;;2.72;;
54167;SDS011;68429;50.958;3.592;2023-12-29T02:49:30;20.33;;;4.13;;
54167;SDS011;68429;50.958;3.592;2023-12-29T02:51:56;10.80;;;2.15;;
54167;SDS011;68429;50.958;3.592;2023-12-29T02:54:21;13.48;;;2.60;;
54167;SDS011;68429;50.958;3.592;2023-12-29T02:56:47;16.50;;;3.60;;
54167;SDS011;68429;50.958;3.592;2023-12-29T02:59:12;15.25;;;2.92;;
54167;SDS011;68429;50.958;3.592;2023-12-29T03:01:38;12.57;;;2.55;;
54167;SDS011;68429;50.958;3.592;2023-12-29T03:04:04;14.57;;;2.55;;
54167;SDS011;68429;50.958;3.592;2023-12-29T03:06:29;11.18;;;2.17;;
54167;SDS011;68429;50.958;3.592;2023-12-29T03:08:55;16.23;;;2.45;;
54167;SDS011;68429;50.958;3.592;2023-12-29T03:11:20;13.88;;;3.17;;
54167;SDS011;68429;50.958;3.592;2023-12-29T03:13:46;20.15;;;3.13;;
54167;SDS011;68429;50.958;3.592;2023-12-29T03:16:12;20.10;;;2.92;;
54167;SDS011;68429;50.958;3.592;2023-12-29T03:18:37;21.77;;;2.13;;
54167;SDS011;68429;50.958;3.592;2023-12-29T03:21:05;11.50;;;2.30;;
54167;SDS011;68429;50.958;3.592;2023-12-29T03:23:31;9.35;;;1.75;;
54167;SDS011;68429;50.958;3.592;2023-12-29T03:25:56;12.38;;;2.08;;
54167;SDS011;68429;50.958;3.592;2023-12-29T03:28:22;11.80;;;2.67;;
54167;SDS011;68429;50.958;3.592;2023-12-29T03:30:48;15.50;;;2.63;;
54167;SDS011;68429;50.958;3.592;2023-12-29T03:33:14;11.07;;;2.20;;
54167;SDS011;68429;50.958;3.592;2023-12-29T03:35:40;16.60;;;2.22;;
54167;SDS011;68429;50.958;3.592;2023-12-29T03:38:05;16.27;;;2.45;;
54167;SDS011;68429;50.958;3.592;2023-12-29T03:40:31;14.52;;;2.42;;
54167;SDS011;68429;50.958;3.592;2023-12-29T03:42:57;15.50;;;2.22;;
54167;SDS011;68429;50.958;3.592;2023-12-29T03:45:22;19.00;;;2.85;;
54167;SDS011;68429;50.958;3.592;2023-12-29T03:47:48;12.05;;;2.15;;
54167;SDS011;68429;50.958;3.592;2023-12-29T03:50:13;12.80;;;2.30;;
54167;SDS011;68429;50.958;3.592;2023-12-29T03:52:39;16.65;;;3.28;;
54167;SDS011;68429;50.958;3.592;2023-12-29T03:55:05;11.95;;;1.75;;
54167;SDS011;68429;50.958;3.592;2023-12-29T03:57:31;12.20;;;2.08;;
54167;SDS011;68429;50.958;3.592;2023-12-29T03:59:56;20.83;;;2.38;;
54167;SDS011;68429;50.958;3.592;2023-12-29T04:02:22;14.80;;;2.67;;
54167;SDS011;68429;50.958;3.592;2023-12-29T04:04:48;22.67;;;4.30;;
54167;SDS011;68429;50.958;3.592;2023-12-29T04:07:13;20.40;;;3.00;;
54167;SDS011;68429;50.958;3.592;2023-12-29T04:09:39;17.90;;;3.05;;
54167;SDS011;68429;50.958;3.592;2023-12-29T04:12:04;13.65;;;2.83;;
54167;SDS011;68429;50.958;3.592;2023-12-29T04:14:30;12.73;;;2.17;;
54167;SDS011;68429;50.958;3.592;2023-12-29T04:16:56;18.15;;;3.17;;
54167;SDS011;68429;50.958;3.592;2023-12-29T04:19:22;13.18;;;3.10;;
54167;SDS011;68429;50.958;3.592;2023-12-29T04:21:47;9.30;;;1.80;;
54167;SDS011;68429;50.958;3.592;2023-12-29T04:24:13;17.70;;;2.58;;
54167;SDS011;68429;50.958;3.592;2023-12-29T04:26:39;14.63;;;2.85;;
54167;SDS011;68429;50.958;3.592;2023-12-29T04:29:04;16.30;;;2.88;;
54167;SDS011;68429;50.958;3.592;2023-12-29T04:31:30;19.05;;;3.13;;
54167;SDS011;68429;50.958;3.592;2023-12-29T04:33:55;17.25;;;2.60;;
54167;SDS011;68429;50.958;3.592;2023-12-29T04:36:21;19.13;;;2.67;;
54167;SDS011;68429;50.958;3.592;2023-12-29T04:38:47;16.77;;;3.13;;
54167;SDS011;68429;50.958;3.592;2023-12-29T04:41:12;17.30;;;2.72;;
54167;SDS011;68429;50.958;3.592;2023-12-29T04:43:38;15.00;;;2.65;;
54167;SDS011;68429;50.958;3.592;2023-12-29T04:46:04;13.55;;;1.88;;
54167;SDS011;68429;50.958;3.592;2023-12-29T04:48:29;14.40;;;3.05;;
54167;SDS011;68429;50.958;3.592;2023-12-29T04:50:55;17.13;;;3.58;;
54167;SDS011;68429;50.958;3.592;2023-12-29T04:53:21;14.38;;;3.10;;
54167;SDS011;68429;50.958;3.592;2023-12-29T04:55:46;12.93;;;2.38;;
54167;SDS011;68429;50.958;3.592;2023-12-29T04:58:12;10.85;;;2.08;;
54167;SDS011;68429;50.958;3.592;2023-12-29T05:00:38;14.30;;;2.25;;
54167;SDS011;68429;50.958;3.592;2023-12-29T05:03:03;17.50;;;2.83;;
54167;SDS011;68429;50.958;3.592;2023-12-29T05:05:29;15.93;;;2.47;;
54167;SDS011;68429;50.958;3.592;2023-12-29T05:07:55;18.05;;;3.97;;
54167;SDS011;68429;50.958;3.592;2023-12-29T05:10:20;13.45;;;2.50;;
54167;SDS011;68429;50.958;3.592;2023-12-29T05:12:46;17.52;;;2.63;;
54167;SDS011;68429;50.958;3.592;2023-12-29T05:15:11;15.45;;;2.42;;
54167;SDS011;68429;50.958;3.592;2023-12-29T05:17:37;15.43;;;2.92;;
54167;SDS011;68429;50.958;3.592;2023-12-29T05:20:05;9.75;;;1.98;;
54167;SDS011;68429;50.958;3.592;2023-12-29T05:22:32;16.17;;;1.92;;
54167;SDS011;68429;50.958;3.592;2023-12-29T05:24:57;10.65;;;2.40;;
54167;SDS011;68429;50.958;3.592;2023-12-29T05:27:25;9.02;;;1.75;;
54167;SDS011;68429;50.958;3.592;2023-12-29T05:29:51;15.07;;;2.63;;
54167;SDS011;68429;50.958;3.592;2023-12-29T05:32:17;19.73;;;3.40;;
54167;SDS011;68429;50.958;3.592;2023-12-29T05:34:43;10.10;;;2.10;;
54167;SDS011;68429;50.958;3.592;2023-12-29T05:37:08;10.35;;;2.35;;
54167;SDS011;68429;50.958;3.592;2023-12-29T05:39:34;11.63;;;2.42;;
54167;SDS011;68429;50.958;3.592;2023-12-29T05:41:59;10.40;;;2.03;;
54167;SDS011;68429;50.958;3.592;2023-12-29T05:44:25;11.95;;;2.35;;
54167;SDS011;68429;50.958;3.592;2023-12-29T05:46:51;15.15;;;2.33;;
54167;SDS011;68429;50.958;3.592;2023-12-29T05:49:17;15.65;;;2.97;;
54167;SDS011;68429;50.958;3.592;2023-12-29T05:51:43;19.55;;;2.70;;
54167;SDS011;68429;50.958;3.592;2023-12-29T05:54:09;14.98;;;2.70;;
54167;SDS011;68429;50.958;3.592;2023-12-29T05:56:35;14.48;;;2.40;;
54167;SDS011;68429;50.958;3.592;2023-12-29T05:59:01;16.00;;;3.53;;
54167;SDS011;68429;50.958;3.592;2023-12-29T06:01:26;16.65;;;2.70;;
54167;SDS011;68429;50.958;3.592;2023-12-29T06:03:52;19.98;;;3.38;;
54167;SDS011;68429;50.958;3.592;2023-12-29T06:06:18;14.27;;;2.33;;
54167;SDS011;68429;50.958;3.592;2023-12-29T06:08:43;17.67;;;3.25;;
54167;SDS011;68429;50.958;3.592;2023-12-29T06:11:14;18.23;;;2.33;;
54167;SDS011;68429;50.958;3.592;2023-12-29T06:13:41;16.92;;;2.10;;
54167;SDS011;68429;50.958;3.592;2023-12-29T06:16:06;18.58;;;2.80;;
54167;SDS011;68429;50.958;3.592;2023-12-29T06:18:32;15.90;;;2.90;;
54167;SDS011;68429;50.958;3.592;2023-12-29T06:20:58;13.93;;;2.33;;
54167;SDS011;68429;50.958;3.592;2023-12-29T06:23:24;11.27;;;2.28;;
54167;SDS011;68429;50.958;3.592;2023-12-29T06:25:50;13.93;;;2.88;;
54167;SDS011;68429;50.958;3.592;2023-12-29T06:28:16;10.35;;;2.30;;
54167;SDS011;68429;50.958;3.592;2023-12-29T06:30:42;9.27;;;1.75;;
54167;SDS011;68429;50.958;3.592;2023-12-29T06:33:07;9.63;;;1.92;;
54167;SDS011;68429;50.958;3.592;2023-12-29T06:35:33;16.02;;;2.60;;
54167;SDS011;68429;50.958;3.592;2023-12-29T06:37:59;9.70;;;1.90;;
54167;SDS011;68429;50.958;3.592;2023-12-29T06:40:24;12.20;;;2.78;;
54167;SDS011;68429;50.958;3.592;2023-12-29T06:42:50;16.00;;;2.50;;
54167;SDS011;68429;50.958;3.592;2023-12-29T06:45:16;18.25;;;2.83;;
54167;SDS011;68429;50.958;3.592;2023-12-29T06:47:41;9.80;;;2.08;;
54167;SDS011;68429;50.958;3.592;2023-12-29T06:50:07;10.13;;;2.47;;
54167;SDS011;68429;50.958;3.592;2023-12-29T06:52:37;10.13;;;2.08;;
54167;SDS011;68429;50.958;3.592;2023-12-29T06:55:03;17.40;;;2.80;;
54167;SDS011;68429;50.958;3.592;2023-12-29T06:57:29;11.38;;;2.15;;
54167;SDS011;68429;50.958;3.592;2023-12-29T06:59:55;10.13;;;1.63;;
54167;SDS011;68429;50.958;3.592;2023-12-29T07:02:21;7.20;;;1.80;;
54167;SDS011;68429;50.958;3.592;2023-12-29T07:04:46;7.18;;;1.10;;
54167;SDS011;68429;50.958;3.592;2023-12-29T07:07:12;7.05;;;1.83;;
54167;SDS011;68429;50.958;3.592;2023-12-29T07:09:38;8.02;;;1.60;;
54167;SDS011;68429;50.958;3.592;2023-12-29T07:12:07;7.78;;;1.42;;
54167;SDS011;68429;50.958;3.592;2023-12-29T07:14:33;2.25;;;0.95;;
54167;SDS011;68429;50.958;3.592;2023-12-29T07:17:00;11.65;;;2.30;;
54167;SDS011;68429;50.958;3.592;2023-12-29T07:19:26;4.63;;;1.02;;
54167;SDS011;68429;50.958;3.592;2023-12-29T07:21:59;7.22;;;1.00;;
54167;SDS011;68429;50.958;3.592;2023-12-29T07:24:25;5.45;;;1.23;;
54167;SDS011;68429;50.958;3.592;2023-12-29T07:26:50;3.38;;;0.85;;
54167;SDS011;68429;50.958;3.592;2023-12-29T07:29:16;2.70;;;0.60;;
54167;SDS011;68429;50.958;3.592;2023-12-29T07:31:42;2.50;;;0.80;;
54167;SDS011;68429;50.958;3.592;2023-12-29T07:34:07;1.48;;;0.55;;
54167;SDS011;68429;50.958;3.592;2023-12-29T07:36:37;1.85;;;0.70;;
54167;SDS011;68429;50.958;3.592;2023-12-29T07:39:03;1.60;;;0.60;;
54167;SDS011;68429;50.958;3.592;2023-12-29T07:41:29;2.42;;;0.60;;
54167;SDS011;68429;50.958;3.592;2023-12-29T07:43:55;5.00;;;0.77;;
54167;SDS011;68429;50.958;3.592;2023-12-29T07:46:24;1.52;;;0.50;;
54167;SDS011;68429;50.958;3.592;2023-12-29T07:48:51;2.38;;;0.40;;
54167;SDS011;68429;50.958;3.592;2023-12-29T07:51:17;1.27;;;0.43;;
54167;SDS011;68429;50.958;3.592;2023-12-29T07:53:43;8.68;;;2.13;;
54167;SDS011;68429;50.958;3.592;2023-12-29T07:56:12;3.25;;;0.80;;
54167;SDS011;68429;50.958;3.592;2023-12-29T07:58:37;3.17;;;1.10;;
54167;SDS011;68429;50.958;3.592;2023-12-29T08:01:03;9.02;;;2.20;;
54167;SDS011;68429;50.958;3.592;2023-12-29T08:03:29;7.07;;;2.72;;
54167;SDS011;68429;50.958;3.592;2023-12-29T08:05:54;6.03;;;2.33;;
54167;SDS011;68429;50.958;3.592;2023-12-29T08:08:20;7.40;;;2.38;;
54167;SDS011;68429;50.958;3.592;2023-12-29T08:10:46;4.65;;;1.98;;
54167;SDS011;68429;50.958;3.592;2023-12-29T08:13:11;7.88;;;1.67;;
54167;SDS011;68429;50.958;3.592;2023-12-29T08:15:37;9.75;;;2.42;;
54167;SDS011;68429;50.958;3.592;2023-12-29T08:18:03;10.82;;;2.50;;
54167;SDS011;68429;50.958;3.592;2023-12-29T08:20:29;7.63;;;2.25;;
54167;SDS011;68429;50.958;3.592;2023-12-29T08:22:55;8.80;;;2.08;;
54167;SDS011;68429;50.958;3.592;2023-12-29T08:25:22;9.05;;;2.30;;
54167;SDS011;68429;50.958;3.592;2023-12-29T08:27:47;8.60;;;3.45;;
54167;SDS011;68429;50.958;3.592;2023-12-29T08:30:13;6.63;;;1.80;;
54167;SDS011;68429;50.958;3.592;2023-12-29T08:32:39;3.95;;;1.30;;
54167;SDS011;68429;50.958;3.592;2023-12-29T08:35:05;5.63;;;1.50;;
54167;SDS011;68429;50.958;3.592;2023-12-29T08:37:31;7.30;;;1.50;;
54167;SDS011;68429;50.958;3.592;2023-12-29T08:39:58;5.95;;;1.42;;
54167;SDS011;68429;50.958;3.592;2023-12-29T08:42:24;4.57;;;1.75;;
54167;SDS011;68429;50.958;3.592;2023-12-29T08:44:51;6.93;;;2.10;;
54167;SDS011;68429;50.958;3.592;2023-12-29T08:47:17;6.55;;;1.50;;
54167;SDS011;68429;50.958;3.592;2023-12-29T08:49:43;7.68;;;1.48;;
54167;SDS011;68429;50.958;3.592;2023-12-29T08:52:09;12.63;;;1.75;;
54167;SDS011;68429;50.958;3.592;2023-12-29T08:54:34;5.55;;;1.38;;
54167;SDS011;68429;50.958;3.592;2023-12-29T08:57:01;4.65;;;1.52;;
54167;SDS011;68429;50.958;3.592;2023-12-29T08:59:28;5.38;;;0.88;;
54167;SDS011;68429;50.958;3.592;2023-12-29T09:01:54;4.90;;;1.20;;
54167;SDS011;68429;50.958;3.592;2023-12-29T09:04:19;6.03;;;1.15;;
54167;SDS011;68429;50.958;3.592;2023-12-29T09:06:45;4.82;;;1.20;;
54167;SDS011;68429;50.958;3.592;2023-12-29T09:09:11;5.53;;;0.90;;
54167;SDS011;68429;50.958;3.592;2023-12-29T09:11:38;7.05;;;1.13;;
54167;SDS011;68429;50.958;3.592;2023-12-29T09:14:04;6.28;;;1.42;;
54167;SDS011;68429;50.958;3.592;2023-12-29T09:16:30;4.88;;;0.60;;
54167;SDS011;68429;50.958;3.592;2023-12-29T09:18:56;3.15;;;0.70;;
54167;SDS011;68429;50.958;3.592;2023-12-29T09:21:22;5.88;;;0.85;;
54167;SDS011;68429;50.958;3.592;2023-12-29T09:23:47;5.30;;;1.17;;
54167;SDS011;68429;50.958;3.592;2023-12-29T09:26:13;1.10;;;0.60;;
54167;SDS011;68429;50.958;3.592;2023-12-29T09:28:41;2.00;;;0.65;;
54167;SDS011;68429;50.958;3.592;2023-12-29T09:31:09;3.72;;;0.55;;
54167;SDS011;68429;50.958;3.592;2023-12-29T09:33:35;4.35;;;0.93;;
54167;SDS011;68429;50.958;3.592;2023-12-29T09:36:01;5.70;;;1.17;;
54167;SDS011;68429;50.958;3.592;2023-12-29T09:38:27;2.92;;;0.90;;
54167;SDS011;68429;50.958;3.592;2023-12-29T09:40:53;5.07;;;0.80;;
54167;SDS011;68429;50.958;3.592;2023-12-29T09:45:49;1.88;;;0.73;;
54167;SDS011;68429;50.958;3.592;2023-12-29T09:48:17;2.45;;;0.90;;
54167;SDS011;68429;50.958;3.592;2023-12-29T09:50:44;2.60;;;0.80;;
54167;SDS011;68429;50.958;3.592;2023-12-29T09:53:11;6.50;;;0.90;;
54167;SDS011;68429;50.958;3.592;2023-12-29T09:55:38;1.60;;;0.60;;
54167;SDS011;68429;50.958;3.592;2023-12-29T09:58:05;5.18;;;1.30;;
54167;SDS011;68429;50.958;3.592;2023-12-29T10:00:33;2.05;;;0.95;;
54167;SDS011;68429;50.958;3.592;2023-12-29T10:03:00;6.15;;;1.02;;
54167;SDS011;68429;50.958;3.592;2023-12-29T10:05:25;8.25;;;1.67;;
54167;SDS011;68429;50.958;3.592;2023-12-29T10:07:52;6.82;;;1.90;;
54167;SDS011;68429;50.958;3.592;2023-12-29T10:10:18;7.97;;;1.85;;
54167;SDS011;68429;50.958;3.592;2023-12-29T10:15:20;9.70;;;2.45;;
54167;SDS011;68429;50.958;3.592;2023-12-29T10:18:00;11.13;;;2.80;;
54167;SDS011;68429;50.958;3.592;2023-12-29T10:20:48;11.93;;;2.28;;
54167;SDS011;68429;50.958;3.592;2023-12-29T10:26:05;12.93;;;3.42;;
54167;SDS011;68429;50.958;3.592;2023-12-29T10:28:35;8.27;;;2.13;;
54167;SDS011;68429;50.958;3.592;2023-12-29T10:31:01;8.50;;;2.20;;
54167;SDS011;68429;50.958;3.592;2023-12-29T10:33:26;11.70;;;2.78;;
54167;SDS011;68429;50.958;3.592;2023-12-29T10:36:01;12.18;;;3.35;;
54167;SDS011;68429;50.958;3.592;2023-12-29T10:38:28;10.57;;;3.03;;
54167;SDS011;68429;50.958;3.592;2023-12-29T10:40:54;13.85;;;4.07;;
54167;SDS011;68429;50.958;3.592;2023-12-29T10:43:43;12.85;;;2.72;;
54167;SDS011;68429;50.958;3.592;2023-12-29T10:46:12;13.45;;;3.05;;
54167;SDS011;68429;50.958;3.592;2023-12-29T10:48:38;10.77;;;2.60;;
54167;SDS011;68429;50.958;3.592;2023-12-29T10:51:04;12.82;;;2.40;;
54167;SDS011;68429;50.958;3.592;2023-12-29T10:53:34;12.02;;;2.63;;
54167;SDS011;68429;50.958;3.592;2023-12-29T10:56:01;11.77;;;2.70;;
54167;SDS011;68429;50.958;3.592;2023-12-29T10:58:27;16.02;;;2.45;;
54167;SDS011;68429;50.958;3.592;2023-12-29T11:00:57;7.25;;;1.65;;
54167;SDS011;68429;50.958;3.592;2023-12-29T11:03:25;9.75;;;2.65;;
54167;SDS011;68429;50.958;3.592;2023-12-29T11:05:51;12.80;;;2.47;;
54167;SDS011;68429;50.958;3.592;2023-12-29T11:08:25;8.13;;;2.33;;
54167;SDS011;68429;50.958;3.592;2023-12-29T11:10:51;11.10;;;2.70;;
54167;SDS011;68429;50.958;3.592;2023-12-29T11:13:18;11.05;;;2.38;;
54167;SDS011;68429;50.958;3.592;2023-12-29T11:15:45;11.45;;;1.88;;
54167;SDS011;68429;50.958;3.592;2023-12-29T11:18:12;10.27;;;1.83;;
54167;SDS011;68429;50.958;3.592;2023-12-29T11:20:39;11.38;;;1.85;;
54167;SDS011;68429;50.958;3.592;2023-12-29T11:23:06;15.15;;;3.05;;
54167;SDS011;68429;50.958;3.592;2023-12-29T11:25:33;11.65;;;2.03;;
54167;SDS011;68429;50.958;3.592;2023-12-29T11:27:59;10.38;;;2.20;;
54167;SDS011;68429;50.958;3.592;2023-12-29T11:30:26;11.98;;;2.40;;
54167;SDS011;68429;50.958;3.592;2023-12-29T11:32:59;11.02;;;2.53;;
54167;SDS011;68429;50.958;3.592;2023-12-29T11:41:02;15.05;;;2.65;;
54167;SDS011;68429;50.958;3.592;2023-12-29T11:43:38;8.18;;;2.42;;
54167;SDS011;68429;50.958;3.592;2023-12-29T11:46:06;7.63;;;2.00;;
54167;SDS011;68429;50.958;3.592;2023-12-29T11:51:46;8.18;;;1.77;;
54167;SDS011;68429;50.958;3.592;2023-12-29T11:54:24;11.95;;;2.55;;
54167;SDS011;68429;50.958;3.592;2023-12-29T11:56:53;6.97;;;1.80;;
54167;SDS011;68429;50.958;3.592;2023-12-29T11:59:22;5.63;;;1.80;;
54167;SDS011;68429;50.958;3.592;2023-12-29T12:01:50;8.02;;;2.10;;
54167;SDS011;68429;50.958;3.592;2023-12-29T12:10:38;10.90;;;2.22;;
54167;SDS011;68429;50.958;3.592;2023-12-29T12:12:45;7.43;;;2.10;;
54167;SDS011;68429;50.958;3.592;2023-12-29T12:17:55;6.10;;;1.92;;
54167;SDS011;68429;50.958;3.592;2023-12-29T12:20:21;11.10;;;2.17;;
54167;SDS011;68429;50.958;3.592;2023-12-29T12:22:50;3.58;;;1.20;;
54167;SDS011;68429;50.958;3.592;2023-12-29T12:25:29;5.05;;;1.20;;
54167;SDS011;68429;50.958;3.592;2023-12-29T12:27:58;4.93;;;1.10;;
54167;SDS011;68429;50.958;3.592;2023-12-29T12:30:24;4.57;;;1.10;;
54167;SDS011;68429;50.958;3.592;2023-12-29T12:32:59;3.92;;;0.82;;
54167;SDS011;68429;50.958;3.592;2023-12-29T12:35:26;2.50;;;0.77;;
54167;SDS011;68429;50.958;3.592;2023-12-29T12:40:39;4.53;;;0.80;;
54167;SDS011;68429;50.958;3.592;2023-12-29T12:43:05;4.30;;;1.00;;
54167;SDS011;68429;50.958;3.592;2023-12-29T12:45:33;4.88;;;1.10;;
54167;SDS011;68429;50.958;3.592;2023-12-29T12:48:02;4.90;;;1.02;;
54167;SDS011;68429;50.958;3.592;2023-12-29T12:50:34;6.35;;;1.20;;
54167;SDS011;68429;50.958;3.592;2023-12-29T12:53:00;8.68;;;1.48;;
54167;SDS011;68429;50.958;3.592;2023-12-29T12:55:30;9.30;;;1.40;;
54167;SDS011;68429;50.958;3.592;2023-12-29T12:57:59;4.15;;;1.40;;
54167;SDS011;68429;50.958;3.592;2023-12-29T13:00:25;6.68;;;1.30;;
54167;SDS011;68429;50.958;3.592;2023-12-29T13:02:51;9.43;;;2.72;;
54167;SDS011;68429;50.958;3.592;2023-12-29T13:05:17;8.10;;;2.10;;
54167;SDS011;68429;50.958;3.592;2023-12-29T13:07:43;10.07;;;1.60;;
54167;SDS011;68429;50.958;3.592;2023-12-29T13:10:09;9.00;;;1.98;;
54167;SDS011;68429;50.958;3.592;2023-12-29T13:12:35;12.85;;;1.90;;
54167;SDS011;68429;50.958;3.592;2023-12-29T13:15:07;5.97;;;1.80;;
54167;SDS011;68429;50.958;3.592;2023-12-29T13:17:33;5.55;;;1.90;;
54167;SDS011;68429;50.958;3.592;2023-12-29T13:19:59;7.55;;;2.00;;
54167;SDS011;68429;50.958;3.592;2023-12-29T13:22:25;4.55;;;1.40;;
54167;SDS011;68429;50.958;3.592;2023-12-29T13:24:53;8.02;;;1.95;;
54167;SDS011;68429;50.958;3.592;2023-12-29T13:27:20;4.95;;;1.20;;
54167;SDS011;68429;50.958;3.592;2023-12-29T13:29:46;6.32;;;1.40;;
54167;SDS011;68429;50.958;3.592;2023-12-29T13:37:37;5.82;;;1.30;;
54167;SDS011;68429;50.958;3.592;2023-12-29T13:40:25;4.40;;;1.23;;
54167;SDS011;68429;50.958;3.592;2023-12-29T13:42:57;3.28;;;0.90;;
54167;SDS011;68429;50.958;3.592;2023-12-29T13:45:24;4.43;;;1.20;;
54167;SDS011;68429;50.958;3.592;2023-12-29T13:47:51;3.03;;;1.10;;
54167;SDS011;68429;50.958;3.592;2023-12-29T13:50:18;2.35;;;1.08;;
54167;SDS011;68429;50.958;3.592;2023-12-29T13:52:43;3.22;;;1.08;;
54167;SDS011;68429;50.958;3.592;2023-12-29T13:55:09;5.88;;;1.40;;
54167;SDS011;68429;50.958;3.592;2023-12-29T13:57:35;4.85;;;1.38;;
54167;SDS011;68429;50.958;3.592;2023-12-29T14:03:02;7.50;;;1.60;;
54167;SDS011;68429;50.958;3.592;2023-12-29T14:05:35;4.97;;;1.27;;
54167;SDS011;68429;50.958;3.592;2023-12-29T14:10:30;8.25;;;1.50;;
54167;SDS011;68429;50.958;3.592;2023-12-29T14:13:04;3.78;;;1.20;;
54167;SDS011;68429;50.958;3.592;2023-12-29T14:15:37;6.13;;;1.90;;
54167;SDS011;68429;50.958;3.592;2023-12-29T14:20:38;5.22;;;1.60;;
54167;SDS011;68429;50.958;3.592;2023-12-29T14:23:05;9.82;;;1.50;;
54167;SDS011;68429;50.958;3.592;2023-12-29T14:25:34;8.35;;;1.90;;
54167;SDS011;68429;50.958;3.592;2023-12-29T14:28:13;12.52;;;2.00;;
54167;SDS011;68429;50.958;3.592;2023-12-29T14:33:07;8.80;;;1.70;;
54167;SDS011;68429;50.958;3.592;2023-12-29T14:35:33;7.95;;;2.45;;
54167;SDS011;68429;50.958;3.592;2023-12-29T14:37:59;9.50;;;1.80;;
54167;SDS011;68429;50.958;3.592;2023-12-29T14:40:24;7.15;;;1.63;;
54167;SDS011;68429;50.958;3.592;2023-12-29T14:42:50;13.55;;;2.30;;
54167;SDS011;68429;50.958;3.592;2023-12-29T14:45:16;11.60;;;2.10;;
54167;SDS011;68429;50.958;3.592;2023-12-29T14:47:41;9.02;;;2.38;;
54167;SDS011;68429;50.958;3.592;2023-12-29T14:50:07;7.60;;;1.83;;
54167;SDS011;68429;50.958;3.592;2023-12-29T14:52:33;10.10;;;2.13;;
54167;SDS011;68429;50.958;3.592;2023-12-29T14:54:59;11.68;;;2.42;;
54167;SDS011;68429;50.958;3.592;2023-12-29T14:57:24;10.02;;;1.95;;
54167;SDS011;68429;50.958;3.592;2023-12-29T14:59:50;14.10;;;2.30;;
54167;SDS011;68429;50.958;3.592;2023-12-29T15:02:15;15.13;;;2.88;;
54167;SDS011;68429;50.958;3.592;2023-12-29T15:04:41;11.50;;;2.53;;
54167;SDS011;68429;50.958;3.592;2023-12-29T15:07:07;12.52;;;2.60;;
54167;SDS011;68429;50.958;3.592;2023-12-29T15:09:32;19.42;;;2.95;;
54167;SDS011;68429;50.958;3.592;2023-12-29T15:12:00;22.58;;;3.42;;
54167;SDS011;68429;50.958;3.592;2023-12-29T15:14:27;12.57;;;1.98;;
54167;SDS011;68429;50.958;3.592;2023-12-29T15:16:52;15.73;;;3.38;;
54167;SDS011;68429;50.958;3.592;2023-12-29T15:19:18;14.55;;;2.45;;
54167;SDS011;68429;50.958;3.592;2023-12-29T15:21:44;19.33;;;3.10;;
54167;SDS011;68429;50.958;3.592;2023-12-29T15:24:10;25.88;;;2.78;;